createdAt,value
2019-04-25T00:01:31.371Z,47.23
2019-04-25T00:04:01.900Z,39.55
2019-04-25T00:06:32.247Z,42.80
2019-04-25T00:09:01.915Z,48.13
2019-04-25T00:11:31.252Z,43.33
2019-04-25T00:14:01.499Z,40.78
2019-04-25T00:16:32.696Z,40.77
2019-04-25T00:19:01.834Z,42.50
2019-04-25T00:21:48.853Z,40.92
2019-04-25T00:24:19.370Z,45.78
2019-04-25T00:26:50.020Z,39.45
2019-04-25T00:29:19.113Z,40.67
2019-04-25T00:31:49.370Z,42.30
2019-04-25T00:34:18.275Z,41.30
2019-04-25T00:36:47.081Z,42.83
2019-04-25T00:39:15.974Z,42.23
2019-04-25T00:41:46.152Z,48.08
2019-04-25T00:44:15.442Z,41.23
2019-04-25T00:46:47.838Z,41.18
2019-04-25T00:49:14.895Z,42.78
2019-04-25T00:51:44.512Z,46.23
2019-04-25T00:54:13.529Z,49.73
2019-04-25T00:56:45.808Z,46.40
2019-04-25T00:59:14.632Z,42.90
2019-04-25T01:01:46.492Z,45.73
2019-04-25T01:04:16.022Z,46.48
2019-04-25T01:06:45.462Z,48.87
2019-04-25T01:09:16.295Z,47.00
2019-04-25T01:11:45.870Z,44.83
2019-04-25T01:14:14.923Z,46.77
2019-04-25T01:16:44.941Z,43.65
2019-04-25T01:19:14.177Z,43.45
2019-04-25T01:21:43.983Z,52.95
2019-04-25T01:24:14.105Z,42.70
2019-04-25T01:26:45.854Z,41.95
2019-04-25T01:29:15.535Z,46.08
2019-04-25T01:31:44.543Z,45.23
2019-04-25T01:34:14.266Z,44.67
2019-04-25T01:36:57.135Z,46.53
2019-04-25T01:39:30.411Z,44.40
2019-04-25T01:42:06.885Z,42.65
2019-04-25T01:44:37.533Z,49.75
2019-04-25T01:47:06.647Z,39.98
2019-04-25T01:49:35.449Z,42.53
2019-04-25T01:52:04.546Z,43.52
2019-04-25T01:54:33.941Z,55.83
2019-04-25T01:57:04.307Z,39.33
2019-04-25T01:59:33.881Z,46.85
2019-04-25T02:02:04.046Z,46.73
2019-04-25T02:04:34.129Z,42.33
2019-04-25T02:07:04.224Z,48.00
2019-04-25T02:09:33.763Z,50.25
2019-04-25T02:12:04.900Z,44.88
2019-04-25T02:14:34.251Z,50.20
2019-04-25T02:17:04.697Z,43.52
2019-04-25T02:19:33.924Z,46.05
2019-04-25T02:22:04.096Z,44.80
2019-04-25T02:24:33.963Z,47.08
2019-04-25T02:27:04.559Z,46.65
2019-04-25T02:29:33.632Z,51.80
2019-04-25T02:32:08.558Z,44.63
2019-04-25T02:34:34.608Z,49.35
2019-04-25T02:37:09.126Z,46.60
2019-04-25T02:42:07.868Z,46.83
2019-04-25T02:44:38.237Z,45.08
2019-04-25T02:47:14.868Z,47.13
2019-04-25T02:49:48.231Z,56.50
2019-04-25T02:52:24.839Z,44.88
2019-04-25T02:54:55.752Z,46.37
2019-04-25T02:57:25.122Z,48.42
2019-04-25T02:59:54.710Z,43.00
2019-04-25T03:02:24.963Z,49.15
2019-04-25T03:04:54.551Z,42.45
2019-04-25T03:07:24.554Z,57.48
2019-04-25T03:09:54.781Z,45.03
2019-04-25T03:12:30.610Z,46.58
2019-04-25T03:14:55.004Z,44.03
2019-04-25T03:17:24.743Z,49.83
2019-04-25T03:20:03.138Z,46.42
2019-04-25T03:22:34.579Z,48.65
2019-04-25T03:25:06.952Z,49.77
2019-04-25T03:27:35.208Z,51.08
2019-04-25T03:30:09.598Z,53.68
2019-04-25T03:32:35.842Z,49.70
2019-04-25T03:35:05.907Z,45.80
2019-04-25T03:37:35.534Z,50.17
2019-04-25T03:40:06.888Z,50.78
2019-04-25T03:42:36.638Z,52.62
2019-04-25T03:45:06.067Z,55.45
2019-04-25T03:47:35.274Z,51.05
2019-04-25T03:50:07.276Z,48.98
2019-04-25T03:52:36.980Z,54.23
2019-04-25T03:55:07.752Z,48.48
2019-04-25T03:57:37.453Z,44.98
2019-04-25T04:00:07.452Z,50.78
2019-04-25T04:02:36.502Z,57.50
2019-04-25T04:05:07.289Z,58.55
2019-04-25T04:07:37.182Z,53.50
2019-04-25T04:10:07.982Z,46.45
2019-04-25T04:12:37.045Z,54.80
2019-04-25T04:15:08.261Z,52.50
2019-04-25T04:20:15.162Z,49.48
2019-04-25T04:22:49.456Z,51.18
2019-04-25T04:25:20.003Z,64.77
2019-04-25T04:27:48.827Z,47.58
2019-04-25T04:30:18.383Z,49.83
2019-04-25T04:32:47.238Z,55.40
2019-04-25T04:35:17.319Z,55.70
2019-04-25T04:37:46.383Z,47.53
2019-04-25T04:40:17.235Z,48.02
2019-04-25T04:42:53.796Z,54.85
2019-04-25T04:45:23.247Z,49.60
2019-04-25T04:47:53.342Z,52.33
2019-04-25T04:50:23.283Z,49.08
2019-04-25T04:52:53.999Z,50.03
2019-04-25T04:55:23.238Z,51.10
2019-04-25T04:57:52.175Z,50.98
2019-04-25T05:00:22.699Z,52.62
2019-04-25T05:03:13.133Z,48.98
2019-04-25T05:05:44.282Z,54.27
2019-04-25T05:08:17.491Z,58.25
2019-04-25T05:10:46.379Z,50.92
2019-04-25T05:13:16.652Z,51.63
2019-04-25T05:15:45.747Z,54.67
2019-04-25T05:18:17.115Z,48.83
2019-04-25T05:20:45.610Z,48.42
2019-04-25T05:23:15.094Z,47.15
2019-04-25T05:25:45.064Z,49.35
2019-04-25T05:28:16.229Z,50.15
2019-04-25T05:31:06.014Z,46.60
2019-04-25T05:33:34.803Z,53.58
2019-04-25T05:36:05.771Z,48.70
2019-04-25T05:38:34.167Z,48.80
2019-04-25T05:41:04.810Z,48.20
2019-04-25T05:43:33.614Z,48.63
2019-04-25T05:46:03.388Z,53.42
2019-04-25T05:48:34.098Z,54.10
2019-04-25T05:51:03.934Z,51.70
2019-04-25T05:53:33.416Z,49.85
2019-04-25T05:56:04.041Z,56.70
2019-04-25T05:58:33.727Z,49.35
2019-04-25T06:01:03.374Z,57.35
2019-04-25T06:03:33.827Z,70.67
2019-04-25T06:06:03.397Z,62.62
2019-04-25T06:08:34.223Z,52.40
2019-04-25T06:11:04.906Z,62.08
2019-04-25T06:13:41.392Z,51.35
2019-04-25T06:16:16.421Z,54.30
2019-04-25T06:19:13.663Z,47.93
2019-04-25T06:21:33.794Z,54.33
2019-04-25T06:24:16.318Z,49.80
2019-04-25T06:26:59.435Z,61.28
2019-04-25T06:29:28.461Z,54.33
2019-04-25T06:32:05.621Z,52.45
2019-04-25T06:34:28.421Z,46.18
2019-04-25T06:36:58.358Z,42.38
2019-04-25T06:39:27.944Z,42.30
2019-04-25T06:41:56.994Z,41.55
2019-04-25T06:44:34.606Z,38.25
2019-04-25T06:47:17.330Z,36.63
2019-04-25T06:49:47.229Z,42.27
2019-04-25T06:52:16.060Z,41.30
2019-04-25T06:54:44.970Z,40.65
2019-04-25T06:57:14.116Z,39.78
2019-04-25T06:59:43.723Z,42.17
2019-04-25T07:02:13.975Z,32.48
2019-04-25T07:04:43.531Z,38.45
2019-04-25T07:07:14.919Z,40.65
2019-04-25T07:09:44.070Z,39.70
2019-04-25T07:12:13.497Z,45.95
2019-04-25T07:14:44.024Z,30.90
2019-04-25T07:17:14.283Z,33.67
2019-04-25T07:19:44.105Z,32.93
2019-04-25T07:22:15.235Z,22.93
2019-04-25T07:24:43.979Z,24.60
2019-04-25T07:27:31.153Z,23.52
2019-04-25T07:30:01.697Z,21.77
2019-04-25T07:32:35.778Z,29.00
2019-04-25T07:35:06.382Z,29.65
2019-04-25T07:37:37.345Z,22.33
2019-04-25T07:40:08.294Z,33.95
2019-04-25T07:42:37.196Z,18.98
2019-04-25T07:45:09.905Z,22.77
2019-04-25T07:47:38.838Z,21.73
2019-04-25T07:50:08.385Z,15.40
2019-04-25T07:52:37.688Z,27.45
2019-04-25T07:55:07.056Z,31.75
2019-04-25T07:57:35.898Z,18.62
2019-04-25T08:00:11.011Z,30.12
2019-04-25T08:02:39.926Z,19.07
2019-04-25T08:05:14.378Z,28.30
2019-04-25T08:07:43.734Z,34.35
2019-04-25T08:10:14.636Z,19.60
2019-04-25T08:12:46.009Z,27.93
2019-04-25T08:15:33.863Z,19.67
2019-04-25T08:18:05.197Z,25.27
2019-04-25T08:20:35.804Z,27.22
2019-04-25T08:23:05.468Z,22.95
2019-04-25T08:25:37.704Z,16.62
2019-04-25T08:28:05.016Z,22.37
2019-04-25T08:30:35.330Z,25.82
2019-04-25T08:33:04.797Z,26.25
2019-04-25T08:35:35.169Z,23.10
2019-04-25T08:38:05.793Z,16.60
2019-04-25T08:40:36.986Z,21.73
2019-04-25T08:43:05.531Z,19.10
2019-04-25T08:45:35.727Z,24.52
2019-04-25T08:48:05.503Z,18.07
2019-04-25T08:50:41.002Z,22.45
2019-04-25T08:53:16.414Z,20.48
2019-04-25T08:55:47.071Z,21.97
2019-04-25T08:58:20.257Z,19.27
2019-04-25T09:01:00.744Z,28.02
2019-04-25T09:03:45.514Z,32.63
2019-04-25T09:06:14.621Z,24.27
2019-04-25T09:08:46.447Z,25.48
2019-04-25T09:11:15.103Z,16.82
2019-04-25T09:13:44.955Z,16.20
2019-04-25T09:16:16.002Z,17.23
2019-04-25T09:18:45.338Z,30.65
2019-04-25T09:21:15.129Z,19.42
2019-04-25T09:23:44.888Z,17.12
2019-04-25T09:26:14.363Z,17.40
2019-04-25T09:28:45.265Z,20.37
2019-04-25T09:31:14.114Z,17.95
2019-04-25T09:33:45.053Z,11.53
2019-04-25T09:36:14.154Z,23.62
2019-04-25T09:38:47.953Z,25.02
2019-04-25T09:41:15.233Z,14.93
2019-04-25T09:43:46.027Z,14.03
2019-04-25T09:46:16.592Z,13.88
2019-04-25T09:48:54.352Z,24.40
2019-04-25T09:51:30.783Z,19.00
2019-04-25T09:54:07.610Z,12.65
2019-04-25T09:56:38.299Z,12.40
2019-04-25T09:59:08.950Z,15.05
2019-04-25T10:01:38.323Z,11.63
2019-04-25T10:04:07.277Z,20.02
2019-04-25T10:06:37.186Z,27.00
2019-04-25T10:09:08.348Z,17.47
2019-04-25T10:11:38.265Z,21.73
2019-04-25T10:14:22.163Z,19.17
2019-04-25T10:16:51.963Z,11.97
2019-04-25T10:19:23.492Z,18.25
2019-04-25T10:24:22.012Z,13.48
2019-04-25T10:26:50.909Z,13.58
2019-04-25T10:29:19.912Z,17.55
2019-04-25T10:31:49.231Z,22.15
2019-04-25T10:34:18.342Z,15.55
2019-04-25T10:36:47.352Z,12.10
2019-04-25T10:39:16.183Z,16.97
2019-04-25T10:41:46.629Z,15.85
2019-04-25T10:44:15.916Z,13.28
2019-04-25T10:46:46.839Z,18.42
2019-04-25T10:49:15.371Z,14.33
2019-04-25T10:51:45.687Z,17.45
2019-04-25T10:54:14.776Z,17.98
2019-04-25T10:56:45.674Z,10.20
2019-04-25T10:59:14.569Z,12.43
2019-04-25T11:01:45.039Z,10.50
2019-04-25T11:04:15.761Z,9.78
2019-04-25T11:06:45.551Z,13.62
2019-04-25T11:09:19.043Z,16.60
2019-04-25T11:11:50.416Z,10.38
2019-04-25T11:14:18.681Z,11.90
2019-04-25T11:16:48.332Z,17.37
2019-04-25T11:19:17.409Z,12.35
2019-04-25T11:21:46.629Z,11.30
2019-04-25T11:24:15.556Z,14.00
2019-04-25T11:26:47.647Z,13.80
2019-04-25T11:29:15.587Z,14.23
2019-04-25T11:31:47.251Z,19.30
2019-04-25T11:34:17.286Z,8.53
2019-04-25T11:36:46.704Z,15.68
2019-04-25T11:39:33.955Z,18.45
2019-04-25T11:42:03.044Z,8.03
2019-04-25T11:44:33.291Z,11.73
2019-04-25T11:47:03.903Z,15.10
2019-04-25T11:49:34.033Z,11.40
2019-04-25T11:52:03.121Z,8.98
2019-04-25T11:54:33.641Z,17.82
2019-04-25T11:57:03.558Z,11.68
2019-04-25T11:59:34.149Z,14.00
2019-04-25T12:02:04.662Z,32.48
2019-04-25T12:04:33.673Z,9.35
2019-04-25T12:07:04.236Z,18.02
2019-04-25T12:09:33.692Z,24.47
2019-04-25T12:12:03.546Z,24.52
2019-04-25T12:14:34.150Z,17.70
2019-04-25T12:17:03.810Z,22.45
2019-04-25T12:19:37.282Z,12.60
2019-04-25T12:22:04.062Z,11.15
2019-04-25T12:24:33.595Z,21.93
2019-04-25T12:27:04.168Z,19.70
2019-04-25T12:29:33.688Z,14.25
2019-04-25T12:32:04.068Z,13.00
2019-04-25T12:34:33.817Z,12.37
2019-04-25T12:37:03.840Z,11.57
2019-04-25T12:39:34.182Z,14.93
2019-04-25T12:42:04.317Z,14.25
2019-04-25T12:44:46.261Z,14.90
2019-04-25T12:47:19.198Z,18.37
2019-04-25T12:49:48.637Z,16.10
2019-04-25T12:52:17.716Z,24.95
2019-04-25T12:54:47.438Z,20.52
2019-04-25T12:57:17.373Z,12.75
2019-04-25T12:59:47.299Z,11.78
2019-04-25T13:02:16.499Z,13.75
2019-04-25T13:04:45.618Z,16.48
2019-04-25T13:07:14.849Z,13.18
2019-04-25T13:09:43.654Z,13.43
2019-04-25T13:12:14.979Z,11.93
2019-04-25T13:14:44.130Z,17.15
2019-04-25T13:17:13.615Z,11.28
2019-04-25T13:19:44.118Z,16.93
2019-04-25T13:22:13.208Z,15.18
2019-04-25T13:24:42.011Z,22.80
2019-04-25T13:27:18.291Z,18.23
2019-04-25T13:29:58.794Z,12.50
2019-04-25T13:32:32.179Z,13.75
2019-04-25T13:35:04.785Z,20.27
2019-04-25T13:37:34.166Z,12.88
2019-04-25T13:40:04.013Z,12.85
2019-04-25T13:42:33.337Z,17.80
2019-04-25T13:45:03.551Z,13.88
2019-04-25T13:47:32.993Z,16.00
2019-04-25T13:50:01.795Z,19.12
2019-04-25T13:52:31.337Z,13.65
2019-04-25T13:55:00.528Z,16.10
2019-04-25T13:57:29.948Z,18.75
2019-04-25T13:59:58.748Z,8.68
2019-04-25T14:02:27.643Z,13.43
2019-04-25T14:04:56.574Z,15.72
2019-04-25T14:07:25.590Z,12.15
2019-04-25T14:09:54.490Z,15.75
2019-04-25T14:12:26.260Z,13.85
2019-04-25T14:14:54.101Z,18.07
2019-04-25T14:17:30.627Z,13.48
2019-04-25T14:20:04.269Z,17.02
2019-04-25T14:22:33.238Z,16.15
2019-04-25T14:25:03.885Z,11.80
2019-04-25T14:27:34.063Z,15.80
2019-04-25T14:30:03.874Z,15.95
2019-04-25T14:32:33.942Z,11.60
2019-04-25T14:35:03.933Z,17.87
2019-04-25T14:37:39.180Z,13.30
2019-04-25T14:40:04.109Z,18.12
2019-04-25T14:42:33.236Z,27.60
2019-04-25T14:45:02.228Z,21.37
2019-04-25T14:47:31.665Z,13.48
2019-04-25T14:50:00.504Z,13.53
2019-04-25T14:52:29.355Z,17.50
2019-04-25T14:55:16.279Z,13.90
2019-04-25T14:57:45.270Z,20.65
2019-04-25T15:00:19.623Z,13.40
2019-04-25T15:02:48.529Z,12.13
2019-04-25T15:05:17.331Z,14.10
2019-04-25T15:07:46.239Z,15.58
2019-04-25T15:10:15.149Z,14.00
2019-04-25T15:12:44.160Z,18.25
2019-04-25T15:15:13.030Z,12.85
2019-04-25T15:17:46.394Z,19.27
2019-04-25T15:20:12.623Z,16.00
2019-04-25T15:22:41.633Z,17.52
2019-04-25T15:25:10.539Z,14.65
2019-04-25T15:27:39.548Z,14.15
2019-04-25T15:30:10.257Z,17.75
2019-04-25T15:32:39.206Z,14.33
2019-04-25T15:35:09.655Z,14.58
2019-04-25T15:37:46.131Z,14.73
2019-04-25T15:40:16.675Z,16.52
2019-04-25T15:42:47.326Z,17.25
2019-04-25T15:45:20.736Z,20.30
2019-04-25T15:47:49.641Z,17.07
2019-04-25T15:50:18.653Z,19.12
2019-04-25T15:52:47.461Z,17.30
2019-04-25T15:55:16.878Z,11.30
2019-04-25T15:57:45.771Z,16.95
2019-04-25T16:00:16.438Z,13.70
2019-04-25T16:02:45.222Z,15.70
2019-04-25T16:05:14.249Z,18.37
2019-04-25T16:07:43.937Z,19.32
2019-04-25T16:10:12.984Z,20.37
2019-04-25T16:12:41.892Z,20.10
2019-04-25T16:15:10.780Z,18.05
2019-04-25T16:17:39.603Z,19.50
2019-04-25T16:20:08.619Z,16.32
2019-04-25T16:22:37.526Z,16.90
2019-04-25T16:25:07.609Z,20.68
2019-04-25T16:27:36.669Z,20.32
2019-04-25T16:30:07.915Z,22.65
2019-04-25T16:35:07.202Z,20.52
2019-04-25T16:37:36.832Z,23.57
2019-04-25T16:40:06.513Z,20.77
2019-04-25T16:42:35.947Z,27.42
2019-04-25T16:45:07.095Z,18.23
2019-04-25T16:47:36.105Z,21.68
2019-04-25T16:50:06.891Z,16.97
2019-04-25T16:52:35.911Z,16.35
2019-04-25T16:55:06.920Z,19.30
2019-04-25T16:57:35.749Z,23.83
2019-04-25T17:00:06.999Z,17.73
2019-04-25T17:02:39.633Z,18.70
2019-04-25T17:05:08.408Z,18.02
2019-04-25T17:07:38.399Z,18.75
2019-04-25T17:10:07.752Z,19.60
2019-04-25T17:12:36.864Z,17.15
2019-04-25T17:15:15.276Z,20.37
2019-04-25T17:17:45.828Z,17.07
2019-04-25T17:20:19.040Z,21.93
2019-04-25T17:22:47.836Z,19.15
2019-04-25T17:25:17.578Z,20.02
2019-04-25T17:27:46.482Z,27.62
2019-04-25T17:30:15.594Z,25.72
2019-04-25T17:32:58.319Z,23.42
2019-04-25T17:35:44.220Z,25.65
2019-04-25T17:38:14.862Z,24.67
2019-04-25T17:40:43.778Z,23.50
2019-04-25T17:43:12.578Z,22.48
2019-04-25T17:45:41.734Z,24.95
2019-04-25T17:48:10.697Z,23.38
2019-04-25T17:50:39.745Z,21.52
2019-04-25T17:53:08.721Z,23.65
2019-04-25T17:55:38.139Z,25.43
2019-04-25T17:58:07.157Z,23.15
2019-04-25T18:00:38.011Z,25.95
2019-04-25T18:03:09.158Z,26.55
2019-04-25T18:08:06.057Z,26.12
2019-04-25T18:10:35.604Z,22.50
2019-04-25T18:13:05.650Z,29.37
2019-04-25T18:15:45.894Z,22.25
2019-04-25T18:18:16.526Z,25.07
2019-04-25T18:20:45.331Z,27.82
2019-04-25T18:23:18.538Z,26.20
2019-04-25T18:25:52.082Z,22.15
2019-04-25T18:28:25.461Z,27.42
2019-04-25T18:30:54.985Z,22.85
2019-04-25T18:33:25.527Z,27.27
2019-04-25T18:35:56.065Z,26.00
2019-04-25T18:38:32.558Z,27.87
2019-04-25T18:41:09.147Z,29.55
2019-04-25T18:43:39.834Z,31.05
2019-04-25T18:46:11.968Z,17.90
2019-04-25T18:48:40.865Z,27.73
2019-04-25T18:51:09.717Z,23.15
2019-04-25T18:53:56.604Z,21.85
2019-04-25T18:56:30.220Z,25.12
2019-04-25T18:59:06.721Z,23.02
2019-04-25T19:01:43.755Z,25.23
2019-04-25T19:04:17.304Z,22.07
2019-04-25T19:06:56.002Z,23.60
2019-04-25T19:09:16.758Z,29.80
2019-04-25T19:11:45.668Z,21.87
2019-04-25T19:14:14.557Z,26.57
2019-04-25T19:16:43.482Z,22.95
2019-04-25T19:19:12.292Z,26.97
2019-04-25T19:21:41.612Z,19.67
2019-04-25T19:24:10.709Z,27.37
2019-04-25T19:26:42.222Z,22.65
2019-04-25T19:29:11.807Z,25.60
2019-04-25T19:31:40.911Z,29.77
2019-04-25T19:34:10.747Z,30.52
2019-04-25T19:36:40.540Z,22.48
2019-04-25T19:39:10.305Z,32.60
2019-04-25T19:41:41.577Z,24.10
2019-04-25T19:44:12.212Z,28.85
2019-04-25T19:46:45.625Z,17.98
2019-04-25T19:49:14.431Z,22.73
2019-04-25T19:51:43.199Z,20.97
2019-04-25T19:54:12.042Z,22.27
2019-04-25T19:56:41.240Z,22.85
2019-04-25T19:59:11.596Z,30.57
2019-04-25T20:01:40.464Z,27.20
2019-04-25T20:04:13.902Z,19.57
2019-04-25T20:07:02.306Z,26.95
2019-04-25T20:09:49.392Z,30.72
2019-04-25T20:12:18.710Z,26.68
2019-04-25T20:14:47.499Z,25.32
2019-04-25T20:17:17.854Z,29.42
2019-04-25T20:19:47.648Z,26.73
2019-04-25T20:22:16.591Z,26.23
2019-04-25T20:24:46.300Z,22.58
2019-04-25T20:27:15.227Z,26.60
2019-04-25T20:29:45.177Z,27.48
2019-04-25T20:32:14.268Z,25.75
2019-04-25T20:34:43.180Z,26.68
2019-04-25T20:37:12.187Z,25.68
2019-04-25T20:39:41.080Z,32.25
2019-04-25T20:42:10.004Z,21.42
2019-04-25T20:44:39.015Z,28.27
2019-04-25T20:47:07.904Z,29.07
2019-04-25T20:49:36.827Z,29.48
2019-04-25T20:52:05.839Z,28.02
2019-04-25T20:54:34.746Z,27.65
2019-04-25T20:57:05.154Z,25.15
2019-04-25T20:59:34.001Z,31.23
2019-04-25T21:02:03.009Z,29.20
2019-04-25T21:04:41.738Z,22.05
2019-04-25T21:07:11.147Z,27.98
2019-04-25T21:09:40.069Z,24.50
2019-04-25T21:12:08.962Z,27.62
2019-04-25T21:14:39.728Z,23.02
2019-04-25T21:17:10.272Z,25.90
2019-04-25T21:19:50.464Z,33.48
2019-04-25T21:22:20.370Z,29.40
2019-04-25T21:24:49.502Z,27.75
2019-04-25T21:27:19.510Z,22.77
2019-04-25T21:29:48.407Z,21.35
2019-04-25T21:32:19.073Z,32.13
2019-04-25T21:34:47.975Z,36.55
2019-04-25T21:37:17.395Z,28.87
2019-04-25T21:40:05.397Z,26.60
2019-04-25T21:42:36.396Z,24.40
2019-04-25T21:45:06.873Z,27.93
2019-04-25T21:47:35.745Z,27.10
2019-04-25T21:50:09.468Z,23.47
2019-04-25T21:52:38.579Z,26.15
2019-04-25T21:55:08.106Z,26.85
2019-04-25T21:57:37.106Z,24.05
2019-04-25T22:00:12.056Z,26.33
2019-04-25T22:02:41.258Z,34.48
2019-04-25T22:05:10.672Z,33.98
2019-04-25T22:07:39.804Z,29.42
2019-04-25T22:10:09.526Z,30.85
2019-04-25T22:12:39.647Z,24.80
2019-04-25T22:15:10.619Z,26.35
2019-04-25T22:17:39.526Z,32.28
2019-04-25T22:20:08.789Z,28.75
2019-04-25T22:22:37.756Z,28.50
2019-04-25T22:25:07.069Z,30.65
2019-04-25T22:27:37.306Z,28.75
2019-04-25T22:30:09.797Z,26.90
2019-04-25T22:32:59.519Z,24.35
2019-04-25T22:35:30.126Z,34.53
2019-04-25T22:38:00.016Z,32.53
2019-04-25T22:40:28.965Z,27.93
2019-04-25T22:43:00.294Z,27.93
2019-04-25T22:45:29.239Z,25.82
2019-04-25T22:47:58.457Z,31.40
2019-04-25T22:50:27.770Z,23.92
2019-04-25T22:52:56.576Z,23.42
2019-04-25T22:55:25.483Z,24.85
2019-04-25T22:57:54.392Z,19.15
2019-04-25T23:00:25.140Z,26.65
2019-04-25T23:02:56.098Z,22.20
2019-04-25T23:05:26.650Z,24.35
2019-04-25T23:07:55.955Z,22.60
2019-04-25T23:10:25.274Z,21.07
2019-04-25T23:12:54.182Z,27.75
2019-04-25T23:15:23.194Z,23.67
2019-04-25T23:17:52.305Z,20.82
2019-04-25T23:20:21.421Z,21.15
2019-04-25T23:22:50.432Z,20.60
2019-04-25T23:25:21.383Z,18.02
2019-04-25T23:27:51.932Z,22.52
2019-04-25T23:30:22.882Z,20.97
2019-04-25T23:32:51.792Z,24.20
2019-04-25T23:35:27.989Z,25.35
2019-04-25T23:37:51.141Z,27.10
2019-04-25T23:40:19.961Z,23.90
2019-04-25T23:42:48.752Z,31.15
2019-04-25T23:45:17.659Z,22.48
2019-04-25T23:47:46.463Z,20.65
2019-04-25T23:50:16.766Z,24.52
2019-04-25T23:52:45.814Z,22.55
2019-04-25T23:55:15.194Z,23.47
2019-04-25T23:57:44.141Z,24.65
